sensor_id;sensor_type;location;lat;lon;timestamp;temperature;humidity
14188;DHT22;7175;51.978;5.330;2023-12-22T00:00:13;7.30;99.90
14188;DHT22;7175;51.978;5.330;2023-12-22T00:02:41;7.30;99.90
14188;DHT22;7175;51.978;5.330;2023-12-22T00:05:09;7.30;99.90
14188;DHT22;7175;51.978;5.330;2023-12-22T00:07:38;7.30;99.90
14188;DHT22;7175;51.978;5.330;2023-12-22T00:10:07;7.40;99.90
14188;DHT22;7175;51.978;5.330;2023-12-22T00:12:36;7.40;99.90
14188;DHT22;7175;51.978;5.330;2023-12-22T00:15:05;7.40;99.90
14188;DHT22;7175;51.978;5.330;2023-12-22T00:17:32;7.40;99.90
14188;DHT22;7175;51.978;5.330;2023-12-22T00:20:00;7.40;99.90
14188;DHT22;7175;51.978;5.330;2023-12-22T00:22:30;7.40;99.90
14188;DHT22;7175;51.978;5.330;2023-12-22T00:24:59;7.40;99.90
14188;DHT22;7175;51.978;5.330;2023-12-22T00:27:27;7.40;99.90
14188;DHT22;7175;51.978;5.330;2023-12-22T00:29:55;7.50;99.90
14188;DHT22;7175;51.978;5.330;2023-12-22T00:32:23;7.50;99.90
14188;DHT22;7175;51.978;5.330;2023-12-22T00:34:51;7.50;99.90
14188;DHT22;7175;51.978;5.330;2023-12-22T00:37:19;7.60;99.90
14188;DHT22;7175;51.978;5.330;2023-12-22T00:39:47;7.60;99.90
14188;DHT22;7175;51.978;5.330;2023-12-22T00:42:17;7.60;99.90
14188;DHT22;7175;51.978;5.330;2023-12-22T00:44:45;7.60;99.90
14188;DHT22;7175;51.978;5.330;2023-12-22T00:47:13;7.60;99.90
14188;DHT22;7175;51.978;5.330;2023-12-22T00:49:40;7.60;99.90
14188;DHT22;7175;51.978;5.330;2023-12-22T00:52:08;7.60;99.90
14188;DHT22;7175;51.978;5.330;2023-12-22T00:54:36;7.40;99.90
14188;DHT22;7175;51.978;5.330;2023-12-22T00:57:04;7.10;99.90
14188;DHT22;7175;51.978;5.330;2023-12-22T00:59:34;6.90;99.90
14188;DHT22;7175;51.978;5.330;2023-12-22T01:02:02;6.70;99.90
14188;DHT22;7175;51.978;5.330;2023-12-22T01:04:30;6.70;99.90
14188;DHT22;7175;51.978;5.330;2023-12-22T01:06:58;6.60;99.90
14188;DHT22;7175;51.978;5.330;2023-12-22T01:09:26;6.60;99.90
14188;DHT22;7175;51.978;5.330;2023-12-22T01:11:54;6.60;99.90
14188;DHT22;7175;51.978;5.330;2023-12-22T01:14:22;6.60;99.90
14188;DHT22;7175;51.978;5.330;2023-12-22T01:16:51;6.60;99.90
14188;DHT22;7175;51.978;5.330;2023-12-22T01:19:19;6.70;99.90
14188;DHT22;7175;51.978;5.330;2023-12-22T01:21:46;6.80;99.90
14188;DHT22;7175;51.978;5.330;2023-12-22T01:24:17;6.80;99.90
14188;DHT22;7175;51.978;5.330;2023-12-22T01:26:45;6.70;99.90
14188;DHT22;7175;51.978;5.330;2023-12-22T01:29:13;6.80;99.90
14188;DHT22;7175;51.978;5.330;2023-12-22T01:31:41;6.70;99.90
14188;DHT22;7175;51.978;5.330;2023-12-22T01:34:10;6.70;99.90
14188;DHT22;7175;51.978;5.330;2023-12-22T01:36:38;6.80;99.90
14188;DHT22;7175;51.978;5.330;2023-12-22T01:39:06;6.80;99.90
14188;DHT22;7175;51.978;5.330;2023-12-22T01:41:35;6.80;99.90
14188;DHT22;7175;51.978;5.330;2023-12-22T01:44:03;6.90;99.90
14188;DHT22;7175;51.978;5.330;2023-12-22T01:46:32;6.90;99.90
14188;DHT22;7175;51.978;5.330;2023-12-22T01:49:01;6.90;99.90
14188;DHT22;7175;51.978;5.330;2023-12-22T01:51:32;7.00;99.90
14188;DHT22;7175;51.978;5.330;2023-12-22T01:54:00;6.90;99.90
14188;DHT22;7175;51.978;5.330;2023-12-22T01:56:29;6.90;99.90
14188;DHT22;7175;51.978;5.330;2023-12-22T01:58:59;7.00;99.90
14188;DHT22;7175;51.978;5.330;2023-12-22T02:01:28;7.00;99.90
14188;DHT22;7175;51.978;5.330;2023-12-22T02:03:57;7.00;99.90
14188;DHT22;7175;51.978;5.330;2023-12-22T02:06:27;7.00;99.90
14188;DHT22;7175;51.978;5.330;2023-12-22T02:08:58;7.00;99.90
14188;DHT22;7175;51.978;5.330;2023-12-22T02:11:26;6.90;99.90
14188;DHT22;7175;51.978;5.330;2023-12-22T02:13:54;6.80;99.90
14188;DHT22;7175;51.978;5.330;2023-12-22T02:16:30;6.80;99.90
14188;DHT22;7175;51.978;5.330;2023-12-22T02:19:08;6.80;99.90
14188;DHT22;7175;51.978;5.330;2023-12-22T02:22:05;6.70;99.90
14188;DHT22;7175;51.978;5.330;2023-12-22T02:24:37;6.70;99.90
14188;DHT22;7175;51.978;5.330;2023-12-22T02:27:06;6.70;99.90
14188;DHT22;7175;51.978;5.330;2023-12-22T02:29:37;6.70;99.90
14188;DHT22;7175;51.978;5.330;2023-12-22T02:32:07;6.70;99.90
14188;DHT22;7175;51.978;5.330;2023-12-22T02:34:39;6.70;99.90
14188;DHT22;7175;51.978;5.330;2023-12-22T02:37:08;6.70;99.90
14188;DHT22;7175;51.978;5.330;2023-12-22T02:39:38;6.70;99.90
14188;DHT22;7175;51.978;5.330;2023-12-22T02:42:09;6.80;99.90
14188;DHT22;7175;51.978;5.330;2023-12-22T02:44:38;6.80;99.90
14188;DHT22;7175;51.978;5.330;2023-12-22T02:47:06;6.80;99.90
14188;DHT22;7175;51.978;5.330;2023-12-22T02:49:34;6.90;99.90
14188;DHT22;7175;51.978;5.330;2023-12-22T02:52:02;7.00;99.90
14188;DHT22;7175;51.978;5.330;2023-12-22T02:54:30;7.10;99.90
14188;DHT22;7175;51.978;5.330;2023-12-22T02:57:01;7.10;99.90
14188;DHT22;7175;51.978;5.330;2023-12-22T02:59:29;7.20;99.90
14188;DHT22;7175;51.978;5.330;2023-12-22T03:01:57;7.30;99.90
14188;DHT22;7175;51.978;5.330;2023-12-22T03:04:26;7.30;99.90
14188;DHT22;7175;51.978;5.330;2023-12-22T03:06:54;7.40;99.90
14188;DHT22;7175;51.978;5.330;2023-12-22T03:09:22;7.30;99.90
14188;DHT22;7175;51.978;5.330;2023-12-22T03:11:50;7.30;99.90
14188;DHT22;7175;51.978;5.330;2023-12-22T03:14:22;7.40;99.90
14188;DHT22;7175;51.978;5.330;2023-12-22T03:16:50;7.40;99.90
14188;DHT22;7175;51.978;5.330;2023-12-22T03:19:18;7.40;99.90
14188;DHT22;7175;51.978;5.330;2023-12-22T03:21:46;7.30;99.90
14188;DHT22;7175;51.978;5.330;2023-12-22T03:24:14;7.40;99.90
14188;DHT22;7175;51.978;5.330;2023-12-22T03:26:42;7.50;99.90
14188;DHT22;7175;51.978;5.330;2023-12-22T03:29:10;7.60;99.90
14188;DHT22;7175;51.978;5.330;2023-12-22T03:31:39;7.60;99.90
14188;DHT22;7175;51.978;5.330;2023-12-22T03:34:07;7.60;99.90
14188;DHT22;7175;51.978;5.330;2023-12-22T03:36:35;7.60;99.90
14188;DHT22;7175;51.978;5.330;2023-12-22T03:39:04;7.60;99.90
14188;DHT22;7175;51.978;5.330;2023-12-22T03:41:32;7.70;99.90
14188;DHT22;7175;51.978;5.330;2023-12-22T03:44:00;7.70;99.90
14188;DHT22;7175;51.978;5.330;2023-12-22T03:46:28;7.80;99.90
14188;DHT22;7175;51.978;5.330;2023-12-22T03:48:58;7.90;99.90
14188;DHT22;7175;51.978;5.330;2023-12-22T03:51:26;7.90;99.90
14188;DHT22;7175;51.978;5.330;2023-12-22T03:53:54;7.90;99.90
14188;DHT22;7175;51.978;5.330;2023-12-22T03:56:22;8.00;99.90
14188;DHT22;7175;51.978;5.330;2023-12-22T03:58:50;8.10;99.90
14188;DHT22;7175;51.978;5.330;2023-12-22T04:01:18;8.00;99.90
14188;DHT22;7175;51.978;5.330;2023-12-22T04:03:46;8.10;99.90
14188;DHT22;7175;51.978;5.330;2023-12-22T04:06:15;8.10;99.90
14188;DHT22;7175;51.978;5.330;2023-12-22T04:08:43;8.20;99.90
14188;DHT22;7175;51.978;5.330;2023-12-22T04:11:11;8.30;99.90
14188;DHT22;7175;51.978;5.330;2023-12-22T04:13:39;8.30;99.90
14188;DHT22;7175;51.978;5.330;2023-12-22T04:16:07;8.30;99.90
14188;DHT22;7175;51.978;5.330;2023-12-22T04:18:35;8.30;99.90
14188;DHT22;7175;51.978;5.330;2023-12-22T04:21:03;8.30;99.90
14188;DHT22;7175;51.978;5.330;2023-12-22T04:23:33;8.30;99.90
14188;DHT22;7175;51.978;5.330;2023-12-22T04:26:01;8.20;99.90
14188;DHT22;7175;51.978;5.330;2023-12-22T04:28:29;8.30;99.90
14188;DHT22;7175;51.978;5.330;2023-12-22T04:30:57;8.30;99.90
14188;DHT22;7175;51.978;5.330;2023-12-22T04:33:25;8.30;99.90
14188;DHT22;7175;51.978;5.330;2023-12-22T04:35:53;8.20;99.90
14188;DHT22;7175;51.978;5.330;2023-12-22T04:38:22;8.20;99.90
14188;DHT22;7175;51.978;5.330;2023-12-22T04:40:51;8.20;99.90
14188;DHT22;7175;51.978;5.330;2023-12-22T04:43:19;8.20;99.90
14188;DHT22;7175;51.978;5.330;2023-12-22T04:45:47;8.20;99.90
14188;DHT22;7175;51.978;5.330;2023-12-22T04:48:15;8.20;99.90
14188;DHT22;7175;51.978;5.330;2023-12-22T04:50:43;8.30;99.90
14188;DHT22;7175;51.978;5.330;2023-12-22T04:53:11;8.30;99.90
14188;DHT22;7175;51.978;5.330;2023-12-22T04:55:39;8.30;99.90
14188;DHT22;7175;51.978;5.330;2023-12-22T04:58:09;8.30;99.90
14188;DHT22;7175;51.978;5.330;2023-12-22T05:00:37;8.30;99.90
14188;DHT22;7175;51.978;5.330;2023-12-22T05:03:05;8.40;99.90
14188;DHT22;7175;51.978;5.330;2023-12-22T05:05:33;8.40;99.90
14188;DHT22;7175;51.978;5.330;2023-12-22T05:08:01;8.40;99.90
14188;DHT22;7175;51.978;5.330;2023-12-22T05:10:29;8.40;99.90
14188;DHT22;7175;51.978;5.330;2023-12-22T05:12:57;8.40;99.90
14188;DHT22;7175;51.978;5.330;2023-12-22T05:15:27;8.40;99.90
14188;DHT22;7175;51.978;5.330;2023-12-22T05:17:54;8.40;99.90
14188;DHT22;7175;51.978;5.330;2023-12-22T05:20:22;8.50;99.90
14188;DHT22;7175;51.978;5.330;2023-12-22T05:22:50;8.50;99.90
14188;DHT22;7175;51.978;5.330;2023-12-22T05:25:19;8.50;99.90
14188;DHT22;7175;51.978;5.330;2023-12-22T05:27:47;8.50;99.90
14188;DHT22;7175;51.978;5.330;2023-12-22T05:30:16;8.50;99.90
14188;DHT22;7175;51.978;5.330;2023-12-22T05:32:45;8.50;99.90
14188;DHT22;7175;51.978;5.330;2023-12-22T05:35:13;8.60;99.90
14188;DHT22;7175;51.978;5.330;2023-12-22T05:37:41;8.50;99.90
14188;DHT22;7175;51.978;5.330;2023-12-22T05:40:10;8.60;99.90
14188;DHT22;7175;51.978;5.330;2023-12-22T05:42:38;8.60;99.90
14188;DHT22;7175;51.978;5.330;2023-12-22T05:45:07;8.60;99.90
14188;DHT22;7175;51.978;5.330;2023-12-22T05:47:37;8.70;99.90
14188;DHT22;7175;51.978;5.330;2023-12-22T05:50:08;8.70;99.90
14188;DHT22;7175;51.978;5.330;2023-12-22T05:52:38;8.60;99.90
14188;DHT22;7175;51.978;5.330;2023-12-22T05:55:06;8.50;99.90
14188;DHT22;7175;51.978;5.330;2023-12-22T05:57:35;8.40;99.90
14188;DHT22;7175;51.978;5.330;2023-12-22T06:00:04;8.50;99.90
14188;DHT22;7175;51.978;5.330;2023-12-22T06:02:34;8.50;99.90
14188;DHT22;7175;51.978;5.330;2023-12-22T06:05:02;8.50;99.90
14188;DHT22;7175;51.978;5.330;2023-12-22T06:07:31;8.50;99.90
14188;DHT22;7175;51.978;5.330;2023-12-22T06:10:00;8.50;99.90
14188;DHT22;7175;51.978;5.330;2023-12-22T06:12:27;8.50;99.90
14188;DHT22;7175;51.978;5.330;2023-12-22T06:14:55;8.50;99.90
14188;DHT22;7175;51.978;5.330;2023-12-22T06:17:23;8.60;99.90
14188;DHT22;7175;51.978;5.330;2023-12-22T06:19:51;8.60;99.90
14188;DHT22;7175;51.978;5.330;2023-12-22T06:22:20;8.70;99.90
14188;DHT22;7175;51.978;5.330;2023-12-22T06:24:51;8.60;99.90
14188;DHT22;7175;51.978;5.330;2023-12-22T06:27:19;8.70;99.90
14188;DHT22;7175;51.978;5.330;2023-12-22T06:29:47;8.70;99.90
14188;DHT22;7175;51.978;5.330;2023-12-22T06:32:15;8.70;99.90
14188;DHT22;7175;51.978;5.330;2023-12-22T06:34:44;8.80;99.90
14188;DHT22;7175;51.978;5.330;2023-12-22T06:37:12;8.80;99.90
14188;DHT22;7175;51.978;5.330;2023-12-22T06:39:40;8.80;99.90
14188;DHT22;7175;51.978;5.330;2023-12-22T06:42:09;8.80;99.90
14188;DHT22;7175;51.978;5.330;2023-12-22T06:44:41;8.80;99.90
14188;DHT22;7175;51.978;5.330;2023-12-22T06:47:10;8.90;99.90
14188;DHT22;7175;51.978;5.330;2023-12-22T06:49:38;8.90;99.90
14188;DHT22;7175;51.978;5.330;2023-12-22T06:52:06;9.00;99.90
14188;DHT22;7175;51.978;5.330;2023-12-22T06:54:34;9.00;99.90
14188;DHT22;7175;51.978;5.330;2023-12-22T06:57:03;9.00;99.90
14188;DHT22;7175;51.978;5.330;2023-12-22T06:59:33;9.00;99.90
14188;DHT22;7175;51.978;5.330;2023-12-22T07:02:02;9.00;99.90
14188;DHT22;7175;51.978;5.330;2023-12-22T07:07:49;9.00;99.90
14188;DHT22;7175;51.978;5.330;2023-12-22T07:10:18;9.00;99.90
14188;DHT22;7175;51.978;5.330;2023-12-22T07:12:46;9.00;99.90
14188;DHT22;7175;51.978;5.330;2023-12-22T07:15:15;9.10;99.90
14188;DHT22;7175;51.978;5.330;2023-12-22T07:17:44;9.10;99.90
14188;DHT22;7175;51.978;5.330;2023-12-22T07:20:13;9.10;99.90
14188;DHT22;7175;51.978;5.330;2023-12-22T07:22:41;9.10;99.90
14188;DHT22;7175;51.978;5.330;2023-12-22T07:25:09;9.10;99.90
14188;DHT22;7175;51.978;5.330;2023-12-22T07:27:39;9.10;99.90
14188;DHT22;7175;51.978;5.330;2023-12-22T07:30:07;9.10;99.90
14188;DHT22;7175;51.978;5.330;2023-12-22T07:32:39;9.10;99.90
14188;DHT22;7175;51.978;5.330;2023-12-22T07:35:09;9.10;99.90
14188;DHT22;7175;51.978;5.330;2023-12-22T07:37:37;9.10;99.90
14188;DHT22;7175;51.978;5.330;2023-12-22T07:40:07;8.90;99.90
14188;DHT22;7175;51.978;5.330;2023-12-22T07:42:35;8.90;99.90
14188;DHT22;7175;51.978;5.330;2023-12-22T07:45:05;8.80;99.90
14188;DHT22;7175;51.978;5.330;2023-12-22T07:47:34;8.90;99.90
14188;DHT22;7175;51.978;5.330;2023-12-22T07:50:05;8.90;99.90
14188;DHT22;7175;51.978;5.330;2023-12-22T07:52:35;8.90;99.90
14188;DHT22;7175;51.978;5.330;2023-12-22T07:55:06;8.90;99.90
14188;DHT22;7175;51.978;5.330;2023-12-22T07:57:36;9.00;99.90
14188;DHT22;7175;51.978;5.330;2023-12-22T08:00:05;9.00;99.90
14188;DHT22;7175;51.978;5.330;2023-12-22T08:02:33;9.00;99.90
14188;DHT22;7175;51.978;5.330;2023-12-22T08:05:01;9.10;99.90
14188;DHT22;7175;51.978;5.330;2023-12-22T08:07:31;9.10;99.90
14188;DHT22;7175;51.978;5.330;2023-12-22T08:09:59;9.10;99.90
14188;DHT22;7175;51.978;5.330;2023-12-22T08:12:28;9.20;99.90
14188;DHT22;7175;51.978;5.330;2023-12-22T08:14:58;9.20;99.90
14188;DHT22;7175;51.978;5.330;2023-12-22T08:17:27;9.20;99.90
14188;DHT22;7175;51.978;5.330;2023-12-22T08:19:55;9.30;99.90
14188;DHT22;7175;51.978;5.330;2023-12-22T08:22:37;9.20;99.90
14188;DHT22;7175;51.978;5.330;2023-12-22T08:25:11;9.10;99.90
14188;DHT22;7175;51.978;5.330;2023-12-22T08:27:40;9.00;99.90
14188;DHT22;7175;51.978;5.330;2023-12-22T08:30:10;9.00;99.90
14188;DHT22;7175;51.978;5.330;2023-12-22T08:32:40;9.00;99.90
14188;DHT22;7175;51.978;5.330;2023-12-22T08:35:10;8.90;99.90
14188;DHT22;7175;51.978;5.330;2023-12-22T08:37:41;8.90;99.90
14188;DHT22;7175;51.978;5.330;2023-12-22T08:40:10;8.90;99.90
14188;DHT22;7175;51.978;5.330;2023-12-22T08:42:40;8.90;99.90
14188;DHT22;7175;51.978;5.330;2023-12-22T08:45:10;9.00;99.90
14188;DHT22;7175;51.978;5.330;2023-12-22T08:47:39;9.00;99.90
14188;DHT22;7175;51.978;5.330;2023-12-22T08:50:08;9.10;99.90
14188;DHT22;7175;51.978;5.330;2023-12-22T08:52:36;9.10;99.90
14188;DHT22;7175;51.978;5.330;2023-12-22T08:55:07;9.20;99.90
14188;DHT22;7175;51.978;5.330;2023-12-22T08:57:35;9.30;99.90
14188;DHT22;7175;51.978;5.330;2023-12-22T09:00:06;9.30;99.90
14188;DHT22;7175;51.978;5.330;2023-12-22T09:02:34;9.40;99.90
14188;DHT22;7175;51.978;5.330;2023-12-22T09:05:02;9.40;99.90
14188;DHT22;7175;51.978;5.330;2023-12-22T09:07:32;9.40;99.90
14188;DHT22;7175;51.978;5.330;2023-12-22T09:10:00;9.40;99.90
14188;DHT22;7175;51.978;5.330;2023-12-22T09:12:35;9.40;99.90
14188;DHT22;7175;51.978;5.330;2023-12-22T09:15:03;9.40;99.90
14188;DHT22;7175;51.978;5.330;2023-12-22T09:17:31;9.40;99.90
14188;DHT22;7175;51.978;5.330;2023-12-22T09:20:02;9.40;99.90
14188;DHT22;7175;51.978;5.330;2023-12-22T09:22:30;9.40;99.90
14188;DHT22;7175;51.978;5.330;2023-12-22T09:24:58;9.50;99.90
14188;DHT22;7175;51.978;5.330;2023-12-22T09:27:26;9.50;99.90
14188;DHT22;7175;51.978;5.330;2023-12-22T09:29:58;9.60;99.90
14188;DHT22;7175;51.978;5.330;2023-12-22T09:32:26;9.60;99.90
14188;DHT22;7175;51.978;5.330;2023-12-22T09:34:56;9.60;99.90
14188;DHT22;7175;51.978;5.330;2023-12-22T09:37:26;9.70;99.90
14188;DHT22;7175;51.978;5.330;2023-12-22T09:39:54;9.70;99.90
14188;DHT22;7175;51.978;5.330;2023-12-22T09:42:23;9.70;99.90
14188;DHT22;7175;51.978;5.330;2023-12-22T09:44:53;9.80;99.90
14188;DHT22;7175;51.978;5.330;2023-12-22T09:47:26;9.80;99.90
14188;DHT22;7175;51.978;5.330;2023-12-22T09:49:57;9.80;99.90
14188;DHT22;7175;51.978;5.330;2023-12-22T09:52:26;9.80;99.90
14188;DHT22;7175;51.978;5.330;2023-12-22T09:54:56;9.90;99.90
14188;DHT22;7175;51.978;5.330;2023-12-22T09:57:25;9.90;99.90
14188;DHT22;7175;51.978;5.330;2023-12-22T09:59:55;9.90;99.90
14188;DHT22;7175;51.978;5.330;2023-12-22T10:02:27;10.00;99.90
14188;DHT22;7175;51.978;5.330;2023-12-22T10:04:57;10.10;99.90
14188;DHT22;7175;51.978;5.330;2023-12-22T10:07:26;10.00;99.90
14188;DHT22;7175;51.978;5.330;2023-12-22T10:09:54;10.10;99.90
14188;DHT22;7175;51.978;5.330;2023-12-22T10:12:23;10.10;99.90
14188;DHT22;7175;51.978;5.330;2023-12-22T10:14:53;10.10;99.90
14188;DHT22;7175;51.978;5.330;2023-12-22T10:17:21;10.20;99.90
14188;DHT22;7175;51.978;5.330;2023-12-22T10:19:51;10.20;99.90
14188;DHT22;7175;51.978;5.330;2023-12-22T10:22:20;10.20;99.90
14188;DHT22;7175;51.978;5.330;2023-12-22T10:24:50;10.20;99.90
14188;DHT22;7175;51.978;5.330;2023-12-22T10:27:19;10.30;99.90
14188;DHT22;7175;51.978;5.330;2023-12-22T10:29:49;10.30;99.90
14188;DHT22;7175;51.978;5.330;2023-12-22T10:32:17;10.30;99.90
14188;DHT22;7175;51.978;5.330;2023-12-22T10:34:45;10.30;99.90
14188;DHT22;7175;51.978;5.330;2023-12-22T10:37:15;10.30;99.90
14188;DHT22;7175;51.978;5.330;2023-12-22T10:39:43;10.30;99.90
14188;DHT22;7175;51.978;5.330;2023-12-22T10:42:15;10.30;99.90
14188;DHT22;7175;51.978;5.330;2023-12-22T10:44:43;10.30;99.90
14188;DHT22;7175;51.978;5.330;2023-12-22T10:47:11;10.30;99.90
14188;DHT22;7175;51.978;5.330;2023-12-22T10:49:39;10.40;99.90
14188;DHT22;7175;51.978;5.330;2023-12-22T10:52:11;10.40;99.90
14188;DHT22;7175;51.978;5.330;2023-12-22T10:54:44;10.50;99.90
14188;DHT22;7175;51.978;5.330;2023-12-22T10:57:12;10.50;99.90
14188;DHT22;7175;51.978;5.330;2023-12-22T10:59:44;10.50;99.90
14188;DHT22;7175;51.978;5.330;2023-12-22T11:02:27;10.50;99.90
14188;DHT22;7175;51.978;5.330;2023-12-22T11:04:59;10.50;99.90
14188;DHT22;7175;51.978;5.330;2023-12-22T11:07:29;10.50;99.90
14188;DHT22;7175;51.978;5.330;2023-12-22T11:10:02;10.60;99.90
14188;DHT22;7175;51.978;5.330;2023-12-22T11:12:31;10.60;99.90
14188;DHT22;7175;51.978;5.330;2023-12-22T11:15:02;10.60;99.90
14188;DHT22;7175;51.978;5.330;2023-12-22T11:17:33;10.60;99.90
14188;DHT22;7175;51.978;5.330;2023-12-22T11:20:03;10.60;99.90
14188;DHT22;7175;51.978;5.330;2023-12-22T11:22:34;10.50;99.90
14188;DHT22;7175;51.978;5.330;2023-12-22T11:25:07;10.60;99.90
14188;DHT22;7175;51.978;5.330;2023-12-22T11:27:38;10.60;99.90
14188;DHT22;7175;51.978;5.330;2023-12-22T11:30:08;10.60;99.90
14188;DHT22;7175;51.978;5.330;2023-12-22T11:32:36;10.70;99.90
14188;DHT22;7175;51.978;5.330;2023-12-22T11:35:05;10.70;99.90
14188;DHT22;7175;51.978;5.330;2023-12-22T11:37:35;10.70;99.90
14188;DHT22;7175;51.978;5.330;2023-12-22T11:40:06;10.70;99.90
14188;DHT22;7175;51.978;5.330;2023-12-22T11:42:38;10.70;99.90
14188;DHT22;7175;51.978;5.330;2023-12-22T11:45:13;10.60;99.90
14188;DHT22;7175;51.978;5.330;2023-12-22T11:47:43;10.40;99.90
14188;DHT22;7175;51.978;5.330;2023-12-22T11:50:12;10.40;99.90
14188;DHT22;7175;51.978;5.330;2023-12-22T11:52:40;10.30;99.90
14188;DHT22;7175;51.978;5.330;2023-12-22T11:55:09;10.30;99.90
14188;DHT22;7175;51.978;5.330;2023-12-22T11:57:38;10.40;99.90
14188;DHT22;7175;51.978;5.330;2023-12-22T12:00:09;10.40;99.90
14188;DHT22;7175;51.978;5.330;2023-12-22T12:02:39;10.40;99.90
14188;DHT22;7175;51.978;5.330;2023-12-22T12:05:09;10.50;99.90
14188;DHT22;7175;51.978;5.330;2023-12-22T12:07:39;10.50;99.90
14188;DHT22;7175;51.978;5.330;2023-12-22T12:10:09;10.60;99.90
14188;DHT22;7175;51.978;5.330;2023-12-22T12:12:37;10.60;99.90
14188;DHT22;7175;51.978;5.330;2023-12-22T12:15:10;10.60;99.90
14188;DHT22;7175;51.978;5.330;2023-12-22T12:17:43;10.70;99.90
14188;DHT22;7175;51.978;5.330;2023-12-22T12:20:11;10.70;99.90
14188;DHT22;7175;51.978;5.330;2023-12-22T12:22:42;10.80;99.90
14188;DHT22;7175;51.978;5.330;2023-12-22T12:25:12;10.80;99.90
14188;DHT22;7175;51.978;5.330;2023-12-22T12:28:01;10.80;99.90
14188;DHT22;7175;51.978;5.330;2023-12-22T12:30:30;10.80;99.90
14188;DHT22;7175;51.978;5.330;2023-12-22T12:32:59;10.80;99.90
14188;DHT22;7175;51.978;5.330;2023-12-22T12:35:34;10.80;99.90
14188;DHT22;7175;51.978;5.330;2023-12-22T12:38:06;10.80;99.90
14188;DHT22;7175;51.978;5.330;2023-12-22T12:40:39;10.70;99.90
14188;DHT22;7175;51.978;5.330;2023-12-22T12:43:08;10.70;99.90
14188;DHT22;7175;51.978;5.330;2023-12-22T12:45:36;10.70;99.90
14188;DHT22;7175;51.978;5.330;2023-12-22T12:48:05;10.70;99.90
14188;DHT22;7175;51.978;5.330;2023-12-22T12:50:34;10.70;99.90
14188;DHT22;7175;51.978;5.330;2023-12-22T12:53:05;10.70;99.90
14188;DHT22;7175;51.978;5.330;2023-12-22T12:55:35;10.70;99.90
14188;DHT22;7175;51.978;5.330;2023-12-22T12:58:03;10.70;99.90
14188;DHT22;7175;51.978;5.330;2023-12-22T13:00:33;10.80;99.90
14188;DHT22;7175;51.978;5.330;2023-12-22T13:03:04;10.80;99.90
14188;DHT22;7175;51.978;5.330;2023-12-22T13:05:34;10.80;99.90
14188;DHT22;7175;51.978;5.330;2023-12-22T13:08:10;10.80;99.90
14188;DHT22;7175;51.978;5.330;2023-12-22T13:10:40;10.80;99.90
14188;DHT22;7175;51.978;5.330;2023-12-22T13:13:08;10.90;99.90
14188;DHT22;7175;51.978;5.330;2023-12-22T13:15:40;10.90;99.90
14188;DHT22;7175;51.978;5.330;2023-12-22T13:18:09;10.90;99.90
14188;DHT22;7175;51.978;5.330;2023-12-22T13:20:37;10.90;99.90
14188;DHT22;7175;51.978;5.330;2023-12-22T13:23:05;10.90;99.90
14188;DHT22;7175;51.978;5.330;2023-12-22T13:25:40;10.90;99.90
14188;DHT22;7175;51.978;5.330;2023-12-22T13:28:08;10.90;99.90
14188;DHT22;7175;51.978;5.330;2023-12-22T13:30:37;10.90;99.90
14188;DHT22;7175;51.978;5.330;2023-12-22T13:33:08;10.90;99.90
14188;DHT22;7175;51.978;5.330;2023-12-22T13:35:37;10.90;99.90
14188;DHT22;7175;51.978;5.330;2023-12-22T13:38:09;11.00;99.90
14188;DHT22;7175;51.978;5.330;2023-12-22T13:40:44;11.00;99.90
14188;DHT22;7175;51.978;5.330;2023-12-22T13:43:13;11.00;99.90
14188;DHT22;7175;51.978;5.330;2023-12-22T13:45:42;10.90;99.90
14188;DHT22;7175;51.978;5.330;2023-12-22T13:48:10;11.00;99.90
14188;DHT22;7175;51.978;5.330;2023-12-22T13:50:38;11.00;99.90
14188;DHT22;7175;51.978;5.330;2023-12-22T13:53:08;10.90;99.90
14188;DHT22;7175;51.978;5.330;2023-12-22T13:55:36;10.80;99.90
14188;DHT22;7175;51.978;5.330;2023-12-22T13:58:07;10.80;99.90
14188;DHT22;7175;51.978;5.330;2023-12-22T14:00:38;10.80;99.90
14188;DHT22;7175;51.978;5.330;2023-12-22T14:03:09;10.70;99.90
14188;DHT22;7175;51.978;5.330;2023-12-22T14:05:38;10.70;99.90
14188;DHT22;7175;51.978;5.330;2023-12-22T14:08:06;10.60;99.90
14188;DHT22;7175;51.978;5.330;2023-12-22T14:10:34;10.70;99.90
14188;DHT22;7175;51.978;5.330;2023-12-22T14:13:02;10.70;99.90
14188;DHT22;7175;51.978;5.330;2023-12-22T14:15:32;10.70;99.90
14188;DHT22;7175;51.978;5.330;2023-12-22T14:18:10;10.80;99.90
14188;DHT22;7175;51.978;5.330;2023-12-22T14:20:38;10.80;99.90
14188;DHT22;7175;51.978;5.330;2023-12-22T14:23:07;10.70;99.90
14188;DHT22;7175;51.978;5.330;2023-12-22T14:25:40;10.80;99.90
14188;DHT22;7175;51.978;5.330;2023-12-22T14:28:08;10.80;99.90
14188;DHT22;7175;51.978;5.330;2023-12-22T14:30:37;10.80;99.90
14188;DHT22;7175;51.978;5.330;2023-12-22T14:33:05;10.80;99.90
14188;DHT22;7175;51.978;5.330;2023-12-22T14:35:33;10.80;99.90
14188;DHT22;7175;51.978;5.330;2023-12-22T14:38:01;10.90;99.90
14188;DHT22;7175;51.978;5.330;2023-12-22T14:40:29;10.80;99.90
14188;DHT22;7175;51.978;5.330;2023-12-22T14:42:57;10.80;99.90
14188;DHT22;7175;51.978;5.330;2023-12-22T14:45:25;10.70;99.90
14188;DHT22;7175;51.978;5.330;2023-12-22T14:47:55;10.80;99.90
14188;DHT22;7175;51.978;5.330;2023-12-22T14:50:23;10.80;99.90
14188;DHT22;7175;51.978;5.330;2023-12-22T14:52:51;10.80;99.90
14188;DHT22;7175;51.978;5.330;2023-12-22T14:55:19;10.80;99.90
14188;DHT22;7175;51.978;5.330;2023-12-22T14:57:48;10.80;99.90
14188;DHT22;7175;51.978;5.330;2023-12-22T15:00:16;10.80;99.90
14188;DHT22;7175;51.978;5.330;2023-12-22T15:02:45;10.80;99.90
14188;DHT22;7175;51.978;5.330;2023-12-22T15:05:15;10.70;99.90
14188;DHT22;7175;51.978;5.330;2023-12-22T15:07:44;10.70;99.90
14188;DHT22;7175;51.978;5.330;2023-12-22T15:10:13;10.70;99.90
14188;DHT22;7175;51.978;5.330;2023-12-22T15:12:41;10.70;99.90
14188;DHT22;7175;51.978;5.330;2023-12-22T15:15:09;10.70;99.90
14188;DHT22;7175;51.978;5.330;2023-12-22T15:17:37;10.70;99.90
14188;DHT22;7175;51.978;5.330;2023-12-22T15:20:06;10.70;99.90
14188;DHT22;7175;51.978;5.330;2023-12-22T15:22:39;10.70;99.90
14188;DHT22;7175;51.978;5.330;2023-12-22T15:25:08;10.70;99.90
14188;DHT22;7175;51.978;5.330;2023-12-22T15:27:36;10.70;99.90
14188;DHT22;7175;51.978;5.330;2023-12-22T15:30:11;10.70;99.90
14188;DHT22;7175;51.978;5.330;2023-12-22T15:32:39;10.70;99.90
14188;DHT22;7175;51.978;5.330;2023-12-22T15:35:07;10.70;99.90
14188;DHT22;7175;51.978;5.330;2023-12-22T15:37:36;10.70;99.90
14188;DHT22;7175;51.978;5.330;2023-12-22T15:40:07;10.70;99.90
14188;DHT22;7175;51.978;5.330;2023-12-22T15:42:37;10.70;99.90
14188;DHT22;7175;51.978;5.330;2023-12-22T15:45:06;10.70;99.90
14188;DHT22;7175;51.978;5.330;2023-12-22T15:47:35;10.80;99.90
14188;DHT22;7175;51.978;5.330;2023-12-22T15:50:04;10.70;99.90
14188;DHT22;7175;51.978;5.330;2023-12-22T15:52:35;10.80;99.90
14188;DHT22;7175;51.978;5.330;2023-12-22T15:55:05;10.80;99.90
14188;DHT22;7175;51.978;5.330;2023-12-22T15:57:35;10.80;99.90
14188;DHT22;7175;51.978;5.330;2023-12-22T16:00:04;10.80;99.90
14188;DHT22;7175;51.978;5.330;2023-12-22T16:02:32;10.80;99.90
14188;DHT22;7175;51.978;5.330;2023-12-22T16:05:05;10.80;99.90
14188;DHT22;7175;51.978;5.330;2023-12-22T16:07:35;10.80;99.90
14188;DHT22;7175;51.978;5.330;2023-12-22T16:10:06;10.80;99.90